createdAt,value
2023-04-27T00:00:55.902Z,2.68
2023-04-27T00:01:55.834Z,3.09
2023-04-27T00:02:56.043Z,2.62
2023-04-27T00:03:56.127Z,2.28
2023-04-27T00:04:56.320Z,3.23
2023-04-27T00:05:56.290Z,2.85
2023-04-27T00:06:56.189Z,2.76
2023-04-27T00:07:56.229Z,2.60
2023-04-27T00:08:56.279Z,2.77
2023-04-27T00:09:56.392Z,2.52
2023-04-27T00:10:56.394Z,2.88
2023-04-27T00:11:56.423Z,3.65
2023-04-27T00:12:56.504Z,2.90
2023-04-27T00:13:56.615Z,2.95
2023-04-27T00:14:56.671Z,3.23
2023-04-27T00:15:56.740Z,2.89
2023-04-27T00:16:56.709Z,3.05
2023-04-27T00:17:56.850Z,2.58
2023-04-27T00:18:56.945Z,2.64
2023-04-27T00:19:56.962Z,2.34
2023-04-27T00:20:57.048Z,2.97
2023-04-27T00:21:57.155Z,2.84
2023-04-27T00:22:57.193Z,3.26
2023-04-27T00:23:57.293Z,2.83
2023-04-27T00:24:57.403Z,2.75
2023-04-27T00:25:57.367Z,2.78
2023-04-27T00:26:57.386Z,2.22
2023-04-27T00:27:57.392Z,2.94
2023-04-27T00:28:57.490Z,2.81
2023-04-27T00:29:57.480Z,3.17
2023-04-27T00:30:57.593Z,2.92
2023-04-27T00:31:57.641Z,3.70
2023-04-27T00:32:57.635Z,2.77
2023-04-27T00:33:57.744Z,2.86
2023-04-27T00:34:57.686Z,3.18
2023-04-27T00:35:57.774Z,3.03
2023-04-27T00:36:57.875Z,2.79
2023-04-27T00:37:57.880Z,2.81
2023-04-27T00:38:57.895Z,2.88
2023-04-27T00:39:57.898Z,3.21
2023-04-27T00:40:57.917Z,3.40
2023-04-27T00:41:57.938Z,3.19
2023-04-27T00:42:57.990Z,3.23
2023-04-27T00:43:58.049Z,2.72
2023-04-27T00:44:58.034Z,2.81
2023-04-27T00:45:58.064Z,2.87
2023-04-27T00:46:58.011Z,3.37
2023-04-27T00:47:58.052Z,3.37
2023-04-27T00:48:58.075Z,3.25
2023-04-27T00:49:58.104Z,3.04
2023-04-27T00:50:58.099Z,2.86
2023-04-27T00:51:58.086Z,2.56
2023-04-27T00:52:58.095Z,2.52
2023-04-27T00:53:58.102Z,3.00
2023-04-27T00:54:58.113Z,2.82
2023-04-27T00:55:58.203Z,2.32
2023-04-27T00:56:58.304Z,3.06
2023-04-27T00:57:58.269Z,2.35
2023-04-27T00:58:58.263Z,3.01
2023-04-27T00:59:58.242Z,3.00
2023-04-27T01:00:58.325Z,2.99
2023-04-27T01:01:58.284Z,2.59
2023-04-27T01:02:58.818Z,2.43
2023-04-27T01:03:58.368Z,3.20
2023-04-27T01:04:58.254Z,3.19
2023-04-27T01:05:58.267Z,2.63
2023-04-27T01:06:58.388Z,3.08
2023-04-27T01:07:58.375Z,3.18
2023-04-27T01:08:58.397Z,3.01
2023-04-27T01:09:58.345Z,2.95
2023-04-27T01:10:58.328Z,3.00
2023-04-27T01:11:58.399Z,3.16
2023-04-27T01:12:58.526Z,3.31
2023-04-27T01:13:58.502Z,2.97
2023-04-27T01:14:58.548Z,2.69
2023-04-27T01:15:58.528Z,3.18
2023-04-27T01:16:58.660Z,2.89
2023-04-27T01:17:58.592Z,2.74
2023-04-27T01:18:58.615Z,3.35
2023-04-27T01:19:58.584Z,3.29
2023-04-27T01:20:58.763Z,2.63
2023-04-27T01:21:58.681Z,3.13
2023-04-27T01:22:58.705Z,2.87
2023-04-27T01:23:58.632Z,2.59
2023-04-27T01:24:58.687Z,3.30
2023-04-27T01:25:58.704Z,3.30
2023-04-27T01:26:58.802Z,2.82
2023-04-27T01:27:58.713Z,3.31
2023-04-27T01:28:58.742Z,2.96
2023-04-27T01:29:58.779Z,3.22
2023-04-27T01:30:58.797Z,3.22
2023-04-27T01:31:58.883Z,3.19
2023-04-27T01:32:58.828Z,3.06
2023-04-27T01:33:58.866Z,2.57
2023-04-27T01:34:58.821Z,2.86
2023-04-27T01:35:58.857Z,3.27
2023-04-27T01:36:58.917Z,3.11
2023-04-27T01:37:58.930Z,3.33
2023-04-27T01:38:59.001Z,3.00
2023-04-27T01:39:59.058Z,2.68
2023-04-27T01:40:59.042Z,2.41
2023-04-27T01:41:59.029Z,3.18
2023-04-27T01:42:59.056Z,3.21
2023-04-27T01:43:59.125Z,3.16
2023-04-27T01:44:59.098Z,3.92
2023-04-27T01:45:59.221Z,2.97
2023-04-27T01:46:59.276Z,3.28
2023-04-27T01:47:59.186Z,2.95
2023-04-27T01:48:59.182Z,3.20
2023-04-27T01:49:59.202Z,3.02
2023-04-27T01:50:59.270Z,3.86
2023-04-27T01:51:59.271Z,3.51
2023-04-27T01:52:59.359Z,3.64
2023-04-27T01:53:59.338Z,3.10
2023-04-27T01:54:59.359Z,3.84
2023-04-27T01:55:59.437Z,3.11
2023-04-27T01:56:59.417Z,3.27
2023-04-27T01:57:59.443Z,2.86
2023-04-27T01:58:59.580Z,3.17
2023-04-27T01:59:59.552Z,2.89
2023-04-27T02:00:59.579Z,3.63
2023-04-27T02:01:59.655Z,2.96
2023-04-27T02:02:59.815Z,3.14
2023-04-27T02:03:59.868Z,2.83
2023-04-27T02:04:59.695Z,3.48
2023-04-27T02:05:59.707Z,2.83
2023-04-27T02:06:59.795Z,2.74
2023-04-27T02:07:59.806Z,3.18
2023-04-27T02:08:59.860Z,2.94
2023-04-27T02:09:59.875Z,3.04
2023-04-27T02:10:59.953Z,2.88
2023-04-27T02:11:59.952Z,2.84
2023-04-27T02:13:00.063Z,3.05
2023-04-27T02:14:00.087Z,2.95
2023-04-27T02:15:00.080Z,2.99
2023-04-27T02:16:00.197Z,3.24
2023-04-27T02:17:00.199Z,3.27
2023-04-27T02:18:00.296Z,3.61
2023-04-27T02:19:00.291Z,3.46
2023-04-27T02:20:00.364Z,3.13
2023-04-27T02:21:00.421Z,3.33
2023-04-27T02:22:00.420Z,2.88
2023-04-27T02:23:00.479Z,3.33
2023-04-27T02:24:00.486Z,3.24
2023-04-27T02:25:00.560Z,2.74
2023-04-27T02:26:00.605Z,2.64
2023-04-27T02:27:00.606Z,3.48
2023-04-27T02:28:00.696Z,2.94
2023-04-27T02:29:00.719Z,2.89
2023-04-27T02:30:00.808Z,2.79
2023-04-27T02:31:00.799Z,3.44
2023-04-27T02:32:00.906Z,3.06
2023-04-27T02:33:01.021Z,2.97
2023-04-27T02:34:00.958Z,3.91
2023-04-27T02:35:01.005Z,3.16
2023-04-27T02:36:01.070Z,3.12
2023-04-27T02:37:01.072Z,3.14
2023-04-27T02:38:01.157Z,2.75
2023-04-27T02:39:01.192Z,3.45
2023-04-27T02:40:01.246Z,2.91
2023-04-27T02:41:01.264Z,3.35
2023-04-27T02:42:01.304Z,3.66
2023-04-27T02:43:01.397Z,2.89
2023-04-27T02:44:01.431Z,3.90
2023-04-27T02:45:01.500Z,3.07
2023-04-27T02:46:01.534Z,3.00
2023-04-27T02:47:01.715Z,3.50
2023-04-27T02:48:01.666Z,3.45
2023-04-27T02:49:01.734Z,3.40
2023-04-27T02:50:01.782Z,3.44
2023-04-27T02:51:01.954Z,3.16
2023-04-27T02:52:01.839Z,3.13
2023-04-27T02:53:01.955Z,3.04
2023-04-27T02:54:01.951Z,3.27
2023-04-27T02:55:02.008Z,3.00
2023-04-27T02:56:02.113Z,3.45
2023-04-27T02:57:02.259Z,3.48
2023-04-27T02:58:02.228Z,3.05
2023-04-27T02:59:02.315Z,3.08
2023-04-27T03:00:03.739Z,3.10
2023-04-27T03:01:02.426Z,3.26
2023-04-27T03:02:02.472Z,3.34
2023-04-27T03:03:02.653Z,3.55
2023-04-27T03:04:02.744Z,2.84
2023-04-27T03:05:02.639Z,2.61
2023-04-27T03:06:02.687Z,2.91
2023-04-27T03:07:02.747Z,2.36
2023-04-27T03:08:02.824Z,3.06
2023-04-27T03:09:02.876Z,3.38
2023-04-27T03:10:02.950Z,3.38
2023-04-27T03:11:02.957Z,2.83
2023-04-27T03:12:03.019Z,3.10
2023-04-27T03:13:03.104Z,2.87
2023-04-27T03:14:03.149Z,2.76
2023-04-27T03:15:03.224Z,2.86
2023-04-27T03:16:03.296Z,3.62
2023-04-27T03:17:03.298Z,3.15
2023-04-27T03:18:03.446Z,2.99
2023-04-27T03:19:03.426Z,3.10
2023-04-27T03:20:03.499Z,3.07
2023-04-27T03:21:03.567Z,3.75
2023-04-27T03:22:03.621Z,2.90
2023-04-27T03:23:03.684Z,3.31
2023-04-27T03:24:03.766Z,3.87
2023-04-27T03:25:03.835Z,3.06
2023-04-27T03:26:03.932Z,3.18
2023-04-27T03:27:03.918Z,3.44
2023-04-27T03:28:03.976Z,2.70
2023-04-27T03:29:04.032Z,3.59
2023-04-27T03:30:04.070Z,3.40
2023-04-27T03:31:04.136Z,3.68
2023-04-27T03:32:04.268Z,2.97
2023-04-27T03:33:04.237Z,3.41
2023-04-27T03:34:04.228Z,2.95
2023-04-27T03:35:04.289Z,2.95
2023-04-27T03:36:04.291Z,2.78
2023-04-27T03:37:04.341Z,2.47
2023-04-27T03:38:04.364Z,3.16
2023-04-27T03:39:04.433Z,3.64
2023-04-27T03:40:04.378Z,3.42
2023-04-27T03:41:04.383Z,3.81
2023-04-27T03:42:04.440Z,3.22
2023-04-27T03:43:04.430Z,3.12
2023-04-27T03:44:04.475Z,3.30
2023-04-27T03:45:04.468Z,3.12
2023-04-27T03:46:04.604Z,3.18
2023-04-27T03:47:04.513Z,3.25
2023-04-27T03:48:04.553Z,3.16
2023-04-27T03:49:04.578Z,3.99
2023-04-27T03:50:04.641Z,3.10
2023-04-27T03:51:04.588Z,2.41
2023-04-27T03:52:04.600Z,3.33
2023-04-27T03:53:04.643Z,3.46
2023-04-27T03:54:04.696Z,3.30
2023-04-27T03:55:04.730Z,3.37
2023-04-27T03:56:04.828Z,3.30
2023-04-27T03:57:04.852Z,2.93
2023-04-27T03:58:04.867Z,3.60
2023-04-27T03:59:05.006Z,3.80
2023-04-27T04:00:04.899Z,3.58
2023-04-27T04:01:04.909Z,3.05
2023-04-27T04:02:04.951Z,3.67
2023-04-27T04:03:05.177Z,3.55
2023-04-27T04:04:05.035Z,4.28
2023-04-27T04:05:05.047Z,3.21
2023-04-27T04:06:05.049Z,3.67
2023-04-27T04:07:05.096Z,3.64
2023-04-27T04:08:05.164Z,3.17
2023-04-27T04:09:05.226Z,2.81
2023-04-27T04:10:05.284Z,3.52
2023-04-27T04:11:05.350Z,2.83
2023-04-27T04:12:05.384Z,3.02
2023-04-27T04:13:05.409Z,3.41
2023-04-27T04:14:05.583Z,3.20
2023-04-27T04:15:05.534Z,3.71
2023-04-27T04:16:05.650Z,3.07
2023-04-27T04:17:05.646Z,3.31
2023-04-27T04:18:05.790Z,2.86
2023-04-27T04:19:05.708Z,2.92
2023-04-27T04:20:05.779Z,2.82
2023-04-27T04:21:05.809Z,3.05
2023-04-27T04:22:05.948Z,3.12
2023-04-27T04:23:05.962Z,2.48
2023-04-27T04:24:05.959Z,2.93
2023-04-27T04:25:06.009Z,2.79
2023-04-27T04:26:06.009Z,3.29
2023-04-27T04:27:06.196Z,2.38
2023-04-27T04:28:06.223Z,2.90
2023-04-27T04:29:06.221Z,2.74
2023-04-27T04:30:06.344Z,3.15
2023-04-27T04:31:06.273Z,3.01
2023-04-27T04:32:06.320Z,3.56
2023-04-27T04:33:06.419Z,3.45
2023-04-27T04:34:06.431Z,3.61
2023-04-27T04:35:06.448Z,3.50
2023-04-27T04:36:06.556Z,3.36
2023-04-27T04:37:06.539Z,3.59
2023-04-27T04:38:06.612Z,3.68
2023-04-27T04:39:06.623Z,3.68
2023-04-27T04:40:06.620Z,4.01
2023-04-27T04:41:06.612Z,3.71
2023-04-27T04:42:06.627Z,3.78
2023-04-27T04:43:06.610Z,3.21
2023-04-27T04:44:06.601Z,3.41
2023-04-27T04:45:06.541Z,3.44
2023-04-27T04:46:06.777Z,3.61
2023-04-27T04:47:06.570Z,4.11
2023-04-27T04:48:06.651Z,3.69
2023-04-27T04:49:06.623Z,3.83
2023-04-27T04:50:06.586Z,4.41
2023-04-27T04:51:06.606Z,4.36
2023-04-27T04:52:06.585Z,3.65
2023-04-27T04:53:06.617Z,3.98
2023-04-27T04:54:06.610Z,3.88
2023-04-27T04:55:06.628Z,4.18
2023-04-27T04:56:06.578Z,3.74
2023-04-27T04:57:06.611Z,3.98
2023-04-27T04:58:06.673Z,3.92
2023-04-27T04:59:06.624Z,4.41
2023-04-27T05:00:06.665Z,4.73
2023-04-27T05:01:06.824Z,4.06
2023-04-27T05:02:06.675Z,3.82
2023-04-27T05:03:06.798Z,4.08
2023-04-27T05:04:06.750Z,4.00
2023-04-27T05:05:06.652Z,4.23
2023-04-27T05:06:06.656Z,4.65
2023-04-27T05:07:06.674Z,4.79
2023-04-27T05:08:06.655Z,4.35
2023-04-27T05:09:06.692Z,5.10
2023-04-27T05:10:06.730Z,4.83
2023-04-27T05:11:06.737Z,4.98
2023-04-27T05:12:06.731Z,4.32
2023-04-27T05:13:07.296Z,4.54
2023-04-27T05:14:06.781Z,5.31
2023-04-27T05:15:06.788Z,4.50
2023-04-27T05:16:06.909Z,4.48
2023-04-27T05:17:06.835Z,5.29
2023-04-27T05:18:06.871Z,5.53
2023-04-27T05:19:06.870Z,4.92
2023-04-27T05:20:06.897Z,4.62
2023-04-27T05:21:06.905Z,4.97
2023-04-27T05:22:06.941Z,5.56
2023-04-27T05:23:06.965Z,5.68
2023-04-27T05:24:06.973Z,5.28
2023-04-27T05:25:07.035Z,5.51
2023-04-27T05:26:07.033Z,5.77
2023-04-27T05:27:07.052Z,5.43
2023-04-27T05:28:07.075Z,4.21
2023-04-27T05:29:07.118Z,3.33
2023-04-27T05:30:07.126Z,2.68
2023-04-27T05:31:07.109Z,2.73
2023-04-27T05:32:07.296Z,2.89
2023-04-27T05:33:07.242Z,2.29
2023-04-27T05:34:07.201Z,3.25
2023-04-27T05:35:07.304Z,3.68
2023-04-27T05:36:07.657Z,3.79
2023-04-27T05:37:07.415Z,3.91
2023-04-27T05:38:07.443Z,4.12
2023-04-27T05:39:07.500Z,3.47
2023-04-27T05:40:07.433Z,5.53
2023-04-27T05:41:07.443Z,3.95
2023-04-27T05:42:07.454Z,4.57
2023-04-27T05:43:07.510Z,3.36
2023-04-27T05:44:07.580Z,3.90
2023-04-27T05:45:07.624Z,3.24
2023-04-27T05:46:07.598Z,3.70
2023-04-27T05:47:07.666Z,4.13
2023-04-27T05:48:07.839Z,3.58
2023-04-27T05:49:07.761Z,3.08
2023-04-27T05:50:07.804Z,3.42
2023-04-27T05:51:07.823Z,2.90
2023-04-27T05:52:07.872Z,2.81
2023-04-27T05:53:07.923Z,2.60
2023-04-27T05:54:07.923Z,2.48
2023-04-27T05:55:07.924Z,3.11
2023-04-27T05:56:07.953Z,2.47
2023-04-27T05:57:07.946Z,2.73
2023-04-27T05:58:09.206Z,2.83
2023-04-27T05:59:07.990Z,3.06
2023-04-27T06:00:07.977Z,2.29
2023-04-27T06:01:07.988Z,2.87
2023-04-27T06:02:08.078Z,2.30
2023-04-27T06:03:08.165Z,2.21
2023-04-27T06:04:08.382Z,2.15
2023-04-27T06:05:08.081Z,2.45
2023-04-27T06:06:08.053Z,2.48
2023-04-27T06:07:08.096Z,2.37
2023-04-27T06:08:08.107Z,2.18
2023-04-27T06:09:08.202Z,2.50
2023-04-27T06:10:08.229Z,2.70
2023-04-27T06:11:08.295Z,2.00
2023-04-27T06:12:08.360Z,1.85
2023-04-27T06:13:08.444Z,2.19
2023-04-27T06:14:08.477Z,2.24
2023-04-27T06:15:08.516Z,2.58
2023-04-27T06:16:08.591Z,2.37
2023-04-27T06:17:08.583Z,2.62
2023-04-27T06:18:08.718Z,2.33
2023-04-27T06:19:08.723Z,2.00
2023-04-27T06:20:08.731Z,1.76
2023-04-27T06:21:08.776Z,2.22
2023-04-27T06:22:08.824Z,2.27
2023-04-27T06:23:09.170Z,2.24
2023-04-27T06:24:08.927Z,1.99
2023-04-27T06:25:08.903Z,1.88
2023-04-27T06:26:08.982Z,2.31
2023-04-27T06:27:08.999Z,1.90
2023-04-27T06:28:09.024Z,1.75
2023-04-27T06:29:09.036Z,2.21
2023-04-27T06:30:09.077Z,2.23
2023-04-27T06:31:09.171Z,2.15
2023-04-27T06:32:09.197Z,1.96
2023-04-27T06:33:09.200Z,2.05
2023-04-27T06:34:09.264Z,1.94
2023-04-27T06:35:09.274Z,1.56
2023-04-27T06:36:09.328Z,1.47
2023-04-27T06:37:09.341Z,2.09
2023-04-27T06:38:09.328Z,2.12
2023-04-27T06:39:09.370Z,1.96
2023-04-27T06:40:09.677Z,2.15
2023-04-27T06:41:09.485Z,2.56
2023-04-27T06:42:09.460Z,2.28
2023-04-27T06:43:09.437Z,1.88
2023-04-27T06:44:09.487Z,2.03
2023-04-27T06:45:09.550Z,2.06
2023-04-27T06:46:09.509Z,2.23
2023-04-27T06:47:09.544Z,1.98
2023-04-27T06:48:09.585Z,1.73
2023-04-27T06:49:09.574Z,1.92
2023-04-27T06:50:09.585Z,1.53
2023-04-27T06:51:09.552Z,2.33
2023-04-27T06:52:09.589Z,1.62
2023-04-27T06:53:09.576Z,2.33
2023-04-27T06:54:09.620Z,1.93
2023-04-27T06:55:09.620Z,2.34
2023-04-27T06:56:09.616Z,3.13
2023-04-27T06:57:09.648Z,2.34
2023-04-27T06:58:09.597Z,2.50
2023-04-27T06:59:09.670Z,2.40
2023-04-27T07:00:09.614Z,2.53
2023-04-27T07:01:09.656Z,2.41
2023-04-27T07:02:09.602Z,2.60
2023-04-27T07:03:09.750Z,2.04
2023-04-27T07:04:09.783Z,3.18
2023-04-27T07:05:09.686Z,2.53
2023-04-27T07:06:09.703Z,2.62
2023-04-27T07:07:09.763Z,2.63
2023-04-27T07:08:09.731Z,2.32
2023-04-27T07:09:19.980Z,2.08
2023-04-27T07:10:10.686Z,2.86
2023-04-27T07:11:09.658Z,2.54
2023-04-27T07:12:09.680Z,2.86
2023-04-27T07:13:11.275Z,3.50
2023-04-27T07:14:09.672Z,2.68
2023-04-27T07:15:09.638Z,2.52
2023-04-27T07:16:09.673Z,2.14
2023-04-27T07:17:09.668Z,2.51
2023-04-27T07:18:09.642Z,2.75
2023-04-27T07:19:09.626Z,2.74
2023-04-27T07:20:09.648Z,2.24
2023-04-27T07:21:09.937Z,2.35
2023-04-27T07:22:10.033Z,3.01
2023-04-27T07:23:09.577Z,2.89
2023-04-27T07:24:09.630Z,1.74
2023-04-27T07:25:09.640Z,2.44
2023-04-27T07:26:09.557Z,2.21
2023-04-27T07:27:09.568Z,2.72
2023-04-27T07:28:09.612Z,2.56
2023-04-27T07:29:25.729Z,2.43
2023-04-27T07:30:10.634Z,2.74
2023-04-27T07:31:09.603Z,2.71
2023-04-27T07:32:09.684Z,2.86
2023-04-27T07:33:09.614Z,3.43
2023-04-27T07:34:09.593Z,2.66
2023-04-27T07:35:09.527Z,2.84
2023-04-27T07:36:09.600Z,2.95
2023-04-27T07:37:09.504Z,3.07
2023-04-27T07:38:09.474Z,2.78
2023-04-27T07:39:09.475Z,2.66
2023-04-27T07:40:09.475Z,2.68
2023-04-27T07:41:09.565Z,2.01
2023-04-27T07:42:09.642Z,2.23
2023-04-27T07:43:09.648Z,2.30
2023-04-27T07:44:09.751Z,2.54
2023-04-27T07:45:09.797Z,2.57
2023-04-27T07:46:09.868Z,2.35
2023-04-27T07:47:09.919Z,2.81
2023-04-27T07:48:10.022Z,2.04
2023-04-27T07:49:10.029Z,2.01
2023-04-27T07:50:10.054Z,2.27
2023-04-27T07:51:10.180Z,2.70
2023-04-27T07:52:10.217Z,2.04
2023-04-27T07:53:10.628Z,2.11
2023-04-27T07:54:10.297Z,1.96
2023-04-27T07:55:10.334Z,1.79
2023-04-27T07:56:10.372Z,1.71
2023-04-27T07:57:10.454Z,2.58
2023-04-27T07:58:10.499Z,2.05
2023-04-27T07:59:10.733Z,1.89
2023-04-27T08:00:10.637Z,1.97
2023-04-27T08:01:10.651Z,1.73
2023-04-27T08:02:18.410Z,1.95
2023-04-27T08:03:11.897Z,2.00
2023-04-27T08:04:10.907Z,1.66
2023-04-27T08:05:11.252Z,1.77
2023-04-27T08:06:11.051Z,2.00
2023-04-27T08:07:10.896Z,2.57
2023-04-27T08:08:10.953Z,1.40
2023-04-27T08:09:11.477Z,1.59
2023-04-27T08:10:10.641Z,2.20
2023-04-27T08:11:10.650Z,1.87
2023-04-27T08:12:10.710Z,1.76
2023-04-27T08:13:10.627Z,1.81
2023-04-27T08:14:10.642Z,1.68
2023-04-27T08:15:10.654Z,1.61
2023-04-27T08:16:10.725Z,1.61
2023-04-27T08:17:10.886Z,1.69
2023-04-27T08:18:10.861Z,1.82
2023-04-27T08:19:10.855Z,1.45
2023-04-27T08:20:10.885Z,1.78
2023-04-27T08:21:10.949Z,1.70
2023-04-27T08:22:10.925Z,1.69
2023-04-27T08:23:10.968Z,1.64
2023-04-27T08:24:10.995Z,2.02
2023-04-27T08:25:11.020Z,1.61
2023-04-27T08:26:11.110Z,2.93
2023-04-27T08:27:11.099Z,2.15
2023-04-27T08:28:11.287Z,1.94
2023-04-27T08:29:23.665Z,1.78
2023-04-27T08:30:12.163Z,1.62
2023-04-27T08:31:11.166Z,4.58
2023-04-27T08:32:11.088Z,2.04
2023-04-27T08:33:11.268Z,1.54
2023-04-27T08:34:11.109Z,1.74
2023-04-27T08:35:11.084Z,1.90
2023-04-27T08:36:11.118Z,1.69
2023-04-27T08:37:11.092Z,1.86
2023-04-27T08:38:11.154Z,1.69
2023-04-27T08:39:11.177Z,1.47
2023-04-27T08:40:11.110Z,1.88
2023-04-27T08:41:21.531Z,1.58
2023-04-27T08:42:12.114Z,1.55
2023-04-27T08:43:11.106Z,1.69
2023-04-27T08:44:11.086Z,2.07
2023-04-27T08:45:11.090Z,2.41
2023-04-27T08:46:11.075Z,1.70
2023-04-27T08:47:11.052Z,2.35
2023-04-27T08:48:11.071Z,2.00
2023-04-27T08:49:11.148Z,1.66
2023-04-27T08:50:11.074Z,1.51
2023-04-27T08:51:10.974Z,2.22
2023-04-27T08:52:11.076Z,1.92
2023-04-27T08:53:10.979Z,1.62
2023-04-27T08:54:10.982Z,1.52
2023-04-27T08:55:10.949Z,1.57
2023-04-27T08:56:10.963Z,2.14
2023-04-27T08:57:10.935Z,1.78
2023-04-27T08:58:10.982Z,1.49
2023-04-27T08:59:11.176Z,2.12
2023-04-27T09:00:10.921Z,1.76
2023-04-27T09:01:10.937Z,1.58
2023-04-27T09:02:11.008Z,1.45
2023-04-27T09:03:11.005Z,1.83
2023-04-27T09:04:11.096Z,1.61
2023-04-27T09:05:11.076Z,1.73
2023-04-27T09:06:10.968Z,1.95
2023-04-27T09:07:10.884Z,1.37
2023-04-27T09:08:10.865Z,1.41
2023-04-27T09:09:10.899Z,1.53
2023-04-27T09:10:10.918Z,1.44
2023-04-27T09:11:10.965Z,1.71
2023-04-27T09:12:10.965Z,1.69
2023-04-27T09:13:11.087Z,1.60
2023-04-27T09:14:11.072Z,1.58
2023-04-27T09:15:11.194Z,1.29
2023-04-27T09:16:11.175Z,1.46
2023-04-27T09:17:11.313Z,1.72
2023-04-27T09:18:11.268Z,1.24
2023-04-27T09:19:11.506Z,1.55
2023-04-27T09:20:11.465Z,1.09
2023-04-27T09:21:11.460Z,1.72
2023-04-27T09:22:11.761Z,1.62
2023-04-27T09:23:11.583Z,1.76
2023-04-27T09:24:11.598Z,1.15
2023-04-27T09:25:11.673Z,1.47
2023-04-27T09:26:11.734Z,1.38
2023-04-27T09:27:11.742Z,2.08
2023-04-27T09:28:11.784Z,1.43
2023-04-27T09:29:12.072Z,1.50
2023-04-27T09:30:12.060Z,1.64
2023-04-27T09:31:11.928Z,1.62
2023-04-27T09:32:12.030Z,1.81
2023-04-27T09:33:11.997Z,2.19
2023-04-27T09:34:12.025Z,2.39
2023-04-27T09:35:12.611Z,2.07
2023-04-27T09:36:12.114Z,2.26
2023-04-27T09:37:12.120Z,2.18
2023-04-27T09:38:12.166Z,2.21
2023-04-27T09:39:12.424Z,2.10
2023-04-27T09:40:12.253Z,2.63
2023-04-27T09:41:12.343Z,2.12
2023-04-27T09:42:12.311Z,2.21
2023-04-27T09:43:12.323Z,1.78
2023-04-27T09:44:12.373Z,3.05
2023-04-27T09:45:12.431Z,1.84
2023-04-27T09:46:12.577Z,2.14
2023-04-27T09:47:12.547Z,1.36
2023-04-27T09:48:12.538Z,2.01
2023-04-27T09:49:12.683Z,2.34
2023-04-27T09:50:12.616Z,2.05
2023-04-27T09:51:12.692Z,1.75
2023-04-27T09:52:12.681Z,1.92
2023-04-27T09:53:12.729Z,1.91
2023-04-27T09:54:12.753Z,1.67
2023-04-27T09:55:12.794Z,1.50
2023-04-27T09:56:12.840Z,1.54
2023-04-27T09:57:12.857Z,1.81
2023-04-27T09:58:12.906Z,2.32
2023-04-27T09:59:13.071Z,2.20
2023-04-27T10:00:12.923Z,1.73
2023-04-27T10:01:13.001Z,1.93
2023-04-27T10:02:24.278Z,1.86
2023-04-27T10:03:14.073Z,1.46
2023-04-27T10:04:13.093Z,1.95
2023-04-27T10:05:12.978Z,1.54
2023-04-27T10:06:12.893Z,1.83
2023-04-27T10:07:12.933Z,1.62
2023-04-27T10:08:12.885Z,1.79
2023-04-27T10:09:12.997Z,1.91
2023-04-27T10:10:12.890Z,1.88
2023-04-27T10:11:12.936Z,1.66
2023-04-27T10:12:12.874Z,1.64
2023-04-27T10:13:12.871Z,1.53
2023-04-27T10:14:12.875Z,1.61
2023-04-27T10:15:12.866Z,1.61
2023-04-27T10:16:12.902Z,1.68
2023-04-27T10:17:12.890Z,1.14
2023-04-27T10:18:12.978Z,1.88
2023-04-27T10:19:13.048Z,1.91
2023-04-27T10:20:12.858Z,1.71
2023-04-27T10:21:12.855Z,2.00
2023-04-27T10:22:12.827Z,1.78
2023-04-27T10:23:12.792Z,1.50
2023-04-27T10:24:12.797Z,2.03
2023-04-27T10:25:12.812Z,1.85
2023-04-27T10:26:12.825Z,1.44
2023-04-27T10:27:12.807Z,2.83
2023-04-27T10:28:12.809Z,1.54
2023-04-27T10:29:12.907Z,2.32
2023-04-27T10:30:12.788Z,2.41
2023-04-27T10:31:12.863Z,1.87
2023-04-27T10:32:12.803Z,2.54
2023-04-27T10:33:12.864Z,2.42
2023-04-27T10:34:12.824Z,1.80
2023-04-27T10:35:12.833Z,1.99
2023-04-27T10:36:12.875Z,1.89
2023-04-27T10:37:12.922Z,2.23
2023-04-27T10:38:12.902Z,2.14
2023-04-27T10:39:13.093Z,1.77
2023-04-27T10:40:12.912Z,1.77
2023-04-27T10:41:12.965Z,1.96
2023-04-27T10:42:13.004Z,1.64
2023-04-27T10:43:13.073Z,1.77
2023-04-27T10:44:13.097Z,1.33
2023-04-27T10:45:13.093Z,2.20
2023-04-27T10:46:13.150Z,1.97
2023-04-27T10:47:13.190Z,1.78
2023-04-27T10:48:13.252Z,1.79
2023-04-27T10:49:13.318Z,1.89
2023-04-27T10:50:13.198Z,1.58
2023-04-27T10:51:13.276Z,1.70
2023-04-27T10:52:13.281Z,1.98
2023-04-27T10:53:13.294Z,1.27
2023-04-27T10:54:13.325Z,1.99
2023-04-27T10:55:13.358Z,1.73
2023-04-27T10:56:13.395Z,1.15
2023-04-27T10:57:13.484Z,1.82
2023-04-27T10:58:13.420Z,1.68
2023-04-27T10:59:13.581Z,1.44
2023-04-27T11:00:14.511Z,1.28
2023-04-27T11:01:13.607Z,1.30
2023-04-27T11:02:13.634Z,1.42
2023-04-27T11:03:13.722Z,1.55
2023-04-27T11:04:13.673Z,1.55
2023-04-27T11:05:13.613Z,1.96
2023-04-27T11:06:13.545Z,1.75
2023-04-27T11:07:13.564Z,1.41
2023-04-27T11:08:13.560Z,1.72
2023-04-27T11:09:13.585Z,1.37
2023-04-27T11:10:13.547Z,1.54
2023-04-27T11:11:16.028Z,1.92
2023-04-27T11:12:13.567Z,1.49
2023-04-27T11:13:13.565Z,1.66
2023-04-27T11:14:13.720Z,1.21
2023-04-27T11:15:13.537Z,1.73
2023-04-27T11:16:13.589Z,1.51
2023-04-27T11:17:13.515Z,1.72
2023-04-27T11:18:13.506Z,1.23
2023-04-27T11:19:13.704Z,1.68
2023-04-27T11:20:13.523Z,1.89
2023-04-27T11:21:13.544Z,2.02
2023-04-27T11:22:16.044Z,1.68
2023-04-27T11:23:13.710Z,1.45
2023-04-27T11:24:15.437Z,1.30
2023-04-27T11:25:13.662Z,1.40
2023-04-27T11:26:13.722Z,1.64
2023-04-27T11:27:13.798Z,1.33
2023-04-27T11:28:13.832Z,1.31
2023-04-27T11:29:14.407Z,0.99
2023-04-27T11:30:14.062Z,1.32
2023-04-27T11:31:13.992Z,1.35
2023-04-27T11:32:14.004Z,1.25
2023-04-27T11:33:14.065Z,1.27
2023-04-27T11:34:14.083Z,1.03
2023-04-27T11:35:14.090Z,1.24
2023-04-27T11:36:14.098Z,0.98
2023-04-27T11:37:18.394Z,1.00
2023-04-27T11:38:14.105Z,0.90
2023-04-27T11:39:14.200Z,1.28
2023-04-27T11:40:14.168Z,1.24
2023-04-27T11:41:14.104Z,1.25
2023-04-27T11:42:14.098Z,1.29
2023-04-27T11:43:14.046Z,1.07
2023-04-27T11:44:14.057Z,0.91
2023-04-27T11:45:14.068Z,0.92
2023-04-27T11:46:14.111Z,1.04
2023-04-27T11:47:14.129Z,0.79
2023-04-27T11:48:14.041Z,0.83
2023-04-27T11:49:14.203Z,0.98
2023-04-27T11:50:14.044Z,0.89
2023-04-27T11:51:14.045Z,0.88
2023-04-27T11:52:14.218Z,0.94
2023-04-27T11:53:15.864Z,0.85
2023-04-27T11:54:14.150Z,1.39
2023-04-27T11:55:13.971Z,0.77
2023-04-27T11:56:13.974Z,1.09
2023-04-27T11:57:13.971Z,1.16
2023-04-27T11:58:13.989Z,1.19
2023-04-27T11:59:14.136Z,1.19
2023-04-27T12:00:14.007Z,1.35
2023-04-27T12:01:15.492Z,1.88
2023-04-27T12:02:14.025Z,1.32
2023-04-27T12:03:14.252Z,1.94
2023-04-27T12:04:14.510Z,0.88
2023-04-27T12:05:14.759Z,1.30
2023-04-27T12:06:31.388Z,1.16
2023-04-27T12:07:14.915Z,1.34
2023-04-27T12:08:13.896Z,1.06
2023-04-27T12:09:13.917Z,1.14
2023-04-27T12:10:13.941Z,1.11
2023-04-27T12:11:13.866Z,1.25
2023-04-27T12:12:13.925Z,0.76
2023-04-27T12:13:13.849Z,1.16
2023-04-27T12:14:14.128Z,1.13
2023-04-27T12:15:13.955Z,1.09
2023-04-27T12:16:13.893Z,1.03
2023-04-27T12:17:13.900Z,1.67
2023-04-27T12:18:14.109Z,1.17
2023-04-27T12:19:13.827Z,1.21
2023-04-27T12:20:13.904Z,1.02
2023-04-27T12:21:13.854Z,0.95
2023-04-27T12:22:13.787Z,1.07
2023-04-27T12:23:13.820Z,0.91
2023-04-27T12:24:14.042Z,0.82
2023-04-27T12:25:13.781Z,1.08
2023-04-27T12:26:15.364Z,0.84
2023-04-27T12:27:13.881Z,0.93
2023-04-27T12:28:13.932Z,0.92
2023-04-27T12:29:13.994Z,0.81
2023-04-27T12:30:14.051Z,0.90
2023-04-27T12:32:14.188Z,0.92
2023-04-27T12:33:14.282Z,0.99
2023-04-27T12:34:14.619Z,0.70
2023-04-27T12:35:14.280Z,1.02
2023-04-27T12:36:14.347Z,0.71
2023-04-27T12:37:14.358Z,0.97
2023-04-27T12:38:14.427Z,0.83
2023-04-27T12:39:14.415Z,0.91
2023-04-27T12:40:14.442Z,0.79
2023-04-27T12:41:14.506Z,0.77
2023-04-27T12:42:14.550Z,1.12
2023-04-27T12:43:14.597Z,0.71
2023-04-27T12:44:15.146Z,0.87
2023-04-27T12:45:14.659Z,0.90
2023-04-27T12:46:14.723Z,0.80
2023-04-27T12:47:27.827Z,1.02
2023-04-27T12:48:17.473Z,0.92
2023-04-27T12:49:14.678Z,1.04
2023-04-27T12:50:14.669Z,1.32
2023-04-27T12:51:14.667Z,1.10
2023-04-27T12:52:14.621Z,0.66
2023-04-27T12:53:14.616Z,1.29
2023-04-27T12:54:14.914Z,1.09
2023-04-27T12:55:25.157Z,0.99
2023-04-27T12:56:15.615Z,1.20
2023-04-27T12:57:14.673Z,1.14
2023-04-27T12:58:14.609Z,1.28
2023-04-27T12:59:14.587Z,1.24
2023-04-27T13:00:14.635Z,1.03
2023-04-27T13:01:14.651Z,0.79
2023-04-27T13:02:14.729Z,1.05
2023-04-27T13:03:14.738Z,1.09
2023-04-27T13:04:14.811Z,1.02
2023-04-27T13:05:14.573Z,0.73
2023-04-27T13:06:14.558Z,0.92
2023-04-27T13:07:14.572Z,0.85
2023-04-27T13:08:14.652Z,0.82
2023-04-27T13:09:14.541Z,0.91
2023-04-27T13:10:14.540Z,0.77
2023-04-27T13:11:14.607Z,0.75
2023-04-27T13:12:14.646Z,0.89
2023-04-27T13:13:15.166Z,0.75
2023-04-27T13:14:15.102Z,0.88
2023-04-27T13:15:14.770Z,0.52
2023-04-27T13:16:14.816Z,0.89
2023-04-27T13:17:14.854Z,0.85
2023-04-27T13:18:14.847Z,0.64
2023-04-27T13:19:14.923Z,0.71
2023-04-27T13:20:15.006Z,0.97